createdAt,value
2022-10-29T00:00:54.708Z,12.80
2022-10-29T00:03:22.008Z,12.82
2022-10-29T00:05:56.790Z,15.55
2022-10-29T00:08:23.506Z,8.25
2022-10-29T00:10:50.167Z,11.38
2022-10-29T00:13:16.848Z,11.68
2022-10-29T00:15:43.756Z,10.05
2022-10-29T00:18:10.399Z,15.15
2022-10-29T00:20:37.045Z,14.60
2022-10-29T00:23:03.744Z,13.13
2022-10-29T00:25:30.404Z,16.35
2022-10-29T00:27:57.140Z,16.48
2022-10-29T00:30:26.562Z,11.95
2022-10-29T00:32:53.389Z,16.35
2022-10-29T00:35:20.162Z,15.02
2022-10-29T00:37:46.798Z,14.88
2022-10-29T00:40:13.453Z,18.33
2022-10-29T00:42:40.160Z,17.60
2022-10-29T00:45:13.371Z,12.38
2022-10-29T00:47:40.868Z,15.85
2022-10-29T00:50:12.747Z,10.48
2022-10-29T00:52:44.625Z,9.60
2022-10-29T00:55:15.338Z,15.77
2022-10-29T00:57:48.701Z,10.15
2022-10-29T01:00:17.257Z,13.05
2022-10-29T01:02:45.471Z,13.48
2022-10-29T01:05:18.916Z,16.85
2022-10-29T01:07:46.814Z,12.57
2022-10-29T01:10:15.355Z,15.95
2022-10-29T01:13:18.415Z,12.48
2022-10-29T01:16:04.144Z,11.00
2022-10-29T01:18:38.469Z,11.57
2022-10-29T01:21:11.395Z,10.70
2022-10-29T01:23:54.052Z,13.02
2022-10-29T01:26:32.343Z,13.35
2022-10-29T01:29:17.360Z,11.73
2022-10-29T01:32:07.567Z,8.70
2022-10-29T01:34:42.070Z,9.65
2022-10-29T01:37:21.093Z,15.82
2022-10-29T01:40:12.996Z,6.95
2022-10-29T01:42:44.941Z,9.43
2022-10-29T01:45:29.674Z,8.07
2022-10-29T01:48:15.468Z,4.57
2022-10-29T01:50:44.971Z,7.20
2022-10-29T01:53:12.410Z,7.80
2022-10-29T01:55:39.053Z,6.22
2022-10-29T01:58:06.890Z,8.70
2022-10-29T02:01:01.219Z,8.98
2022-10-29T02:03:40.942Z,6.45
2022-10-29T02:06:42.912Z,4.97
2022-10-29T02:09:20.587Z,3.85
2022-10-29T02:12:12.530Z,4.70
2022-10-29T02:14:46.180Z,4.90
2022-10-29T02:17:12.838Z,4.93
2022-10-29T02:19:39.593Z,4.47
2022-10-29T02:22:06.231Z,5.05
2022-10-29T02:24:32.913Z,4.60
2022-10-29T02:26:59.742Z,5.82
2022-10-29T02:29:26.454Z,5.55
2022-10-29T02:31:53.130Z,6.68
2022-10-29T02:34:19.797Z,5.45
2022-10-29T02:36:46.441Z,4.55
2022-10-29T02:39:13.202Z,5.60
2022-10-29T02:41:39.951Z,7.45
2022-10-29T02:44:06.875Z,7.25
2022-10-29T02:46:36.001Z,8.43
2022-10-29T02:49:02.846Z,4.88
2022-10-29T02:51:29.638Z,6.88
2022-10-29T02:53:56.359Z,4.50
2022-10-29T02:56:23.018Z,7.00
2022-10-29T02:58:49.700Z,10.88
2022-10-29T03:01:16.441Z,7.63
2022-10-29T03:03:43.113Z,11.85
2022-10-29T03:06:17.411Z,11.05
2022-10-29T03:08:44.434Z,10.13
2022-10-29T03:11:11.988Z,15.30
2022-10-29T03:16:10.412Z,12.10
2022-10-29T03:18:37.093Z,10.68
2022-10-29T03:21:03.968Z,10.15
2022-10-29T03:23:30.638Z,18.95
2022-10-29T03:25:57.357Z,15.80
2022-10-29T03:28:28.003Z,12.10
2022-10-29T03:30:54.728Z,12.70
2022-10-29T03:33:21.503Z,10.90
2022-10-29T03:35:48.210Z,17.02
2022-10-29T03:38:14.937Z,11.05
2022-10-29T03:40:42.859Z,13.95
2022-10-29T03:43:09.701Z,13.45
2022-10-29T03:45:36.337Z,12.60
2022-10-29T03:48:04.726Z,11.40
2022-10-29T03:50:31.456Z,9.30
2022-10-29T03:52:58.100Z,12.57
2022-10-29T03:55:25.102Z,13.15
2022-10-29T03:57:51.863Z,11.13
2022-10-29T04:00:18.622Z,8.20
2022-10-29T04:02:45.473Z,8.40
2022-10-29T04:05:12.344Z,7.90
2022-10-29T04:07:39.004Z,15.02
2022-10-29T04:10:06.019Z,14.00
2022-10-29T04:12:32.853Z,12.90
2022-10-29T04:14:59.543Z,16.25
2022-10-29T04:17:26.185Z,13.60
2022-10-29T04:19:52.866Z,10.98
2022-10-29T04:30:43.808Z,13.13
2022-10-29T04:33:10.486Z,6.82
2022-10-29T04:35:37.157Z,13.63
2022-10-29T04:38:11.766Z,13.73
2022-10-29T04:40:38.747Z,13.38
2022-10-29T04:43:05.425Z,11.05
2022-10-29T04:45:32.185Z,13.55
2022-10-29T04:48:00.924Z,11.05
2022-10-29T04:50:28.410Z,12.57
2022-10-29T04:53:02.508Z,18.85
2022-10-29T04:55:29.654Z,14.32
2022-10-29T04:57:56.583Z,13.40
2022-10-29T05:00:24.148Z,12.43
2022-10-29T05:02:52.044Z,12.32
2022-10-29T05:05:20.415Z,11.50
2022-10-29T05:07:47.413Z,12.57
2022-10-29T05:10:14.498Z,12.55
2022-10-29T05:12:41.383Z,12.50
2022-10-29T05:15:08.218Z,13.35
2022-10-29T05:17:38.695Z,13.30
2022-10-29T05:20:05.879Z,12.73
2022-10-29T05:22:32.549Z,11.82
2022-10-29T05:24:59.189Z,10.55
2022-10-29T05:27:25.926Z,13.30
2022-10-29T05:29:52.949Z,13.75
2022-10-29T05:32:19.574Z,8.60
2022-10-29T05:34:46.194Z,8.30
2022-10-29T05:37:12.815Z,10.65
2022-10-29T05:39:39.459Z,7.22
2022-10-29T05:42:06.441Z,11.25
2022-10-29T05:44:33.112Z,13.52
2022-10-29T05:46:59.740Z,10.43
2022-10-29T05:49:26.598Z,11.35
2022-10-29T05:51:53.264Z,10.52
2022-10-29T05:54:19.912Z,8.90
2022-10-29T05:56:46.596Z,10.43
2022-10-29T05:59:13.232Z,11.05
2022-10-29T06:01:40.155Z,8.70
2022-10-29T06:04:06.884Z,11.20
2022-10-29T06:06:34.029Z,7.22
2022-10-29T06:09:00.873Z,11.07
2022-10-29T06:11:27.537Z,9.82
2022-10-29T06:13:57.418Z,12.10
2022-10-29T06:16:24.045Z,9.38
2022-10-29T06:18:50.710Z,11.30
2022-10-29T06:21:17.486Z,9.18
2022-10-29T06:23:44.126Z,9.13
2022-10-29T06:26:10.746Z,11.15
2022-10-29T06:28:37.416Z,11.88
2022-10-29T06:31:04.154Z,8.70
2022-10-29T06:33:31.038Z,7.30
2022-10-29T06:36:01.340Z,6.22
2022-10-29T06:38:28.316Z,10.82
2022-10-29T06:40:54.982Z,8.75
2022-10-29T06:43:21.922Z,8.63
2022-10-29T06:45:50.033Z,7.03
2022-10-29T06:48:21.719Z,9.73
2022-10-29T06:53:16.265Z,9.13
2022-10-29T06:55:42.875Z,8.27
2022-10-29T06:58:15.495Z,8.27
2022-10-29T07:03:13.527Z,10.18
2022-10-29T07:05:40.214Z,6.45
2022-10-29T07:08:07.085Z,8.52
2022-10-29T07:10:34.310Z,9.50
2022-10-29T07:13:01.677Z,7.00
2022-10-29T07:15:30.630Z,8.65
2022-10-29T07:18:02.860Z,8.43
2022-10-29T07:20:33.873Z,9.73
2022-10-29T07:23:01.367Z,7.20
2022-10-29T07:25:29.292Z,7.85
2022-10-29T07:28:02.173Z,9.30
2022-10-29T07:30:28.913Z,9.50
2022-10-29T07:32:55.944Z,11.73
2022-10-29T07:35:23.104Z,10.93
2022-10-29T07:37:50.022Z,12.75
2022-10-29T07:40:16.880Z,11.93
2022-10-29T07:42:43.573Z,12.50
2022-10-29T07:45:10.559Z,9.82
2022-10-29T07:47:37.324Z,11.40
2022-10-29T07:50:04.218Z,10.23
2022-10-29T07:52:30.897Z,12.98
2022-10-29T07:54:57.560Z,15.10
2022-10-29T07:57:24.259Z,15.10
2022-10-29T07:59:51.903Z,16.00
2022-10-29T08:02:18.625Z,15.48
2022-10-29T08:04:45.391Z,12.07
2022-10-29T08:07:12.024Z,14.50
2022-10-29T08:09:38.695Z,13.55
2022-10-29T08:12:06.893Z,18.40
2022-10-29T08:14:33.554Z,15.73
2022-10-29T08:17:00.206Z,12.65
2022-10-29T08:19:26.917Z,15.48
2022-10-29T08:21:53.557Z,14.00
2022-10-29T08:24:20.191Z,17.58
2022-10-29T08:26:46.922Z,15.40
2022-10-29T08:29:13.585Z,15.98
2022-10-29T08:31:41.049Z,14.30
2022-10-29T08:34:11.103Z,18.67
2022-10-29T08:36:38.102Z,22.92
2022-10-29T08:39:04.806Z,24.05
2022-10-29T08:42:00.446Z,24.05
2022-10-29T08:45:03.073Z,25.88
2022-10-29T08:47:46.596Z,24.77
2022-10-29T08:50:28.627Z,24.63
2022-10-29T08:53:21.794Z,28.45
2022-10-29T08:55:43.524Z,26.58
2022-10-29T08:58:55.023Z,25.20
2022-10-29T09:01:23.262Z,33.60
2022-10-29T09:03:51.233Z,23.60
2022-10-29T09:06:30.432Z,25.45
2022-10-29T09:09:37.286Z,20.27
2022-10-29T09:12:41.142Z,24.00
2022-10-29T09:15:28.645Z,27.38
2022-10-29T09:18:14.517Z,26.35
2022-10-29T09:20:56.303Z,24.13
2022-10-29T09:23:35.251Z,27.80
2022-10-29T09:26:11.274Z,32.25
2022-10-29T09:28:59.230Z,29.95
2022-10-29T09:31:30.233Z,26.40
2022-10-29T09:34:02.038Z,31.25
2022-10-29T09:36:30.685Z,28.00
2022-10-29T09:39:02.357Z,25.33
2022-10-29T09:41:33.402Z,24.20
2022-10-29T09:44:20.616Z,26.73
2022-10-29T09:46:59.486Z,27.63
2022-10-29T09:49:50.777Z,27.35
2022-10-29T09:52:21.146Z,24.08
2022-10-29T09:54:51.339Z,24.35
2022-10-29T09:57:22.294Z,29.63
2022-10-29T09:59:55.085Z,35.40
2022-10-29T10:02:33.546Z,29.77
2022-10-29T10:05:15.210Z,23.70
2022-10-29T10:07:42.013Z,24.27
2022-10-29T10:10:22.143Z,28.30
2022-10-29T10:12:50.445Z,31.92
2022-10-29T10:15:22.972Z,31.55
2022-10-29T10:20:34.046Z,28.58
2022-10-29T10:23:01.103Z,30.95
2022-10-29T10:25:35.354Z,30.02
2022-10-29T10:28:21.853Z,28.40
2022-10-29T10:31:15.752Z,30.52
2022-10-29T10:33:52.583Z,28.27
2022-10-29T10:36:23.438Z,26.45
2022-10-29T10:38:52.805Z,29.88
2022-10-29T10:41:25.917Z,25.23
2022-10-29T10:43:57.517Z,28.20
2022-10-29T10:46:29.017Z,35.23
2022-10-29T10:49:16.548Z,28.63
2022-10-29T10:51:44.825Z,25.80
2022-10-29T10:54:34.947Z,28.80
2022-10-29T10:57:19.385Z,27.75
2022-10-29T11:00:01.837Z,23.00
2022-10-29T11:02:57.285Z,25.05
2022-10-29T11:05:37.826Z,27.73
2022-10-29T11:08:17.454Z,29.27
2022-10-29T11:10:49.998Z,29.90
2022-10-29T11:13:21.646Z,21.88
2022-10-29T11:15:55.229Z,27.00
2022-10-29T11:18:34.925Z,24.05
2022-10-29T11:21:26.266Z,20.67
2022-10-29T11:23:59.592Z,25.65
2022-10-29T11:26:34.851Z,30.15
2022-10-29T11:29:22.808Z,21.92
2022-10-29T11:31:55.290Z,27.42
2022-10-29T11:34:47.376Z,31.00
2022-10-29T11:37:42.386Z,28.33
2022-10-29T11:40:44.356Z,29.15
2022-10-29T11:43:18.373Z,20.27
2022-10-29T11:46:18.682Z,23.48
2022-10-29T11:49:10.025Z,24.63
2022-10-29T11:51:51.914Z,23.95
2022-10-29T11:54:21.594Z,21.95
2022-10-29T11:57:01.127Z,24.70
2022-10-29T11:59:33.352Z,24.13
2022-10-29T12:02:41.651Z,25.52
2022-10-29T12:05:43.024Z,28.35
2022-10-29T12:08:42.157Z,27.83
2022-10-29T12:11:40.531Z,24.27
2022-10-29T12:14:22.484Z,24.35
2022-10-29T12:17:31.849Z,24.35
2022-10-29T12:20:10.515Z,23.90
2022-10-29T12:22:46.104Z,23.50
2022-10-29T12:25:47.180Z,18.65
2022-10-29T12:28:39.574Z,23.80
2022-10-29T12:31:30.895Z,21.65
2022-10-29T12:34:11.237Z,18.70
2022-10-29T12:36:56.688Z,24.00
2022-10-29T12:39:35.614Z,17.75
2022-10-29T12:42:12.521Z,22.48
2022-10-29T12:44:46.724Z,24.50
2022-10-29T12:47:29.758Z,20.50
2022-10-29T12:50:28.438Z,19.10
2022-10-29T12:53:07.498Z,24.80
2022-10-29T12:55:36.926Z,19.75
2022-10-29T12:58:42.382Z,20.55
2022-10-29T13:01:44.134Z,22.80
2022-10-29T13:04:33.964Z,23.63
2022-10-29T13:07:18.573Z,26.42
2022-10-29T13:09:48.320Z,31.67
2022-10-29T13:12:53.787Z,29.27
2022-10-29T13:15:23.173Z,28.48
2022-10-29T13:17:52.389Z,25.88
2022-10-29T13:20:48.526Z,27.05
2022-10-29T13:23:23.951Z,31.13
2022-10-29T13:25:59.790Z,25.30
2022-10-29T13:28:26.386Z,19.67
2022-10-29T13:31:14.365Z,25.85
2022-10-29T13:33:41.020Z,20.63
2022-10-29T13:36:16.657Z,46.05
2022-10-29T13:39:07.401Z,18.40
2022-10-29T13:41:44.005Z,20.98
2022-10-29T13:44:21.445Z,21.60
2022-10-29T13:47:00.943Z,24.45
2022-10-29T13:49:39.747Z,22.20
2022-10-29T13:52:09.503Z,19.90
2022-10-29T13:54:54.059Z,20.60
2022-10-29T13:57:50.671Z,20.50
2022-10-29T14:00:19.526Z,18.38
2022-10-29T14:03:14.937Z,23.52
2022-10-29T14:06:00.511Z,20.67
2022-10-29T14:08:46.472Z,17.48
2022-10-29T14:11:23.254Z,22.38
2022-10-29T14:13:52.405Z,23.65
2022-10-29T14:16:24.326Z,13.05
2022-10-29T14:18:51.436Z,16.85
2022-10-29T14:21:28.414Z,25.70
2022-10-29T14:24:02.228Z,48.75
2022-10-29T14:26:30.880Z,27.35
2022-10-29T14:29:14.008Z,22.40
2022-10-29T14:31:40.737Z,16.15
2022-10-29T14:34:23.541Z,16.77
2022-10-29T14:36:55.441Z,17.38
2022-10-29T14:39:32.823Z,16.65
2022-10-29T14:44:52.335Z,15.27
2022-10-29T14:47:28.978Z,12.27
2022-10-29T14:50:02.562Z,12.05
2022-10-29T14:52:39.526Z,15.48
2022-10-29T14:55:19.073Z,13.60
2022-10-29T14:57:55.101Z,11.60
2022-10-29T15:00:25.072Z,12.75
2022-10-29T15:02:54.474Z,15.15
2022-10-29T15:05:32.941Z,9.05
2022-10-29T15:08:11.762Z,12.82
2022-10-29T15:10:53.839Z,10.80
2022-10-29T15:13:29.487Z,10.88
2022-10-29T15:16:05.008Z,11.27
2022-10-29T15:18:33.048Z,11.30
2022-10-29T15:21:00.116Z,10.98
2022-10-29T15:23:33.946Z,12.95
2022-10-29T15:26:07.041Z,11.65
2022-10-29T15:28:43.011Z,11.85
2022-10-29T15:31:43.842Z,17.90
2022-10-29T15:34:19.926Z,13.63
2022-10-29T15:36:49.104Z,12.13
2022-10-29T15:39:26.950Z,13.27
2022-10-29T15:41:59.127Z,14.40
2022-10-29T15:44:28.505Z,12.25
2022-10-29T15:46:59.116Z,18.02
2022-10-29T15:49:31.352Z,11.23
2022-10-29T15:52:00.507Z,11.93
2022-10-29T15:54:28.065Z,14.32
2022-10-29T15:56:54.752Z,15.07
2022-10-29T15:59:25.106Z,14.10
2022-10-29T16:01:51.936Z,12.25
2022-10-29T16:04:18.689Z,10.95
2022-10-29T16:06:45.430Z,9.18
2022-10-29T16:09:18.586Z,13.90
2022-10-29T16:11:45.550Z,14.35
2022-10-29T16:14:12.250Z,11.68
2022-10-29T16:16:38.903Z,15.77
2022-10-29T16:19:05.539Z,12.10
2022-10-29T16:21:32.457Z,11.57
2022-10-29T16:23:59.157Z,21.55
2022-10-29T16:26:26.516Z,12.10
2022-10-29T16:28:53.612Z,14.05
2022-10-29T16:31:25.491Z,12.75
2022-10-29T16:33:54.898Z,10.63
2022-10-29T16:36:21.685Z,15.20
2022-10-29T16:38:48.433Z,11.63
2022-10-29T16:41:17.585Z,10.48
2022-10-29T16:43:44.789Z,10.38
2022-10-29T16:46:12.748Z,12.23
2022-10-29T16:48:40.029Z,11.45
2022-10-29T16:51:07.337Z,14.82
2022-10-29T16:53:34.477Z,17.42
2022-10-29T16:56:01.822Z,14.45
2022-10-29T16:58:28.516Z,11.57
2022-10-29T17:01:10.320Z,10.98
2022-10-29T17:03:38.986Z,12.82
2022-10-29T17:06:08.264Z,11.32
2022-10-29T17:08:36.213Z,16.83
2022-10-29T17:11:05.940Z,12.07
2022-10-29T17:13:33.991Z,12.55
2022-10-29T17:16:00.616Z,13.15
2022-10-29T17:18:27.249Z,12.45
2022-10-29T17:20:55.455Z,15.30
2022-10-29T17:23:22.090Z,12.05
2022-10-29T17:25:54.878Z,13.32
2022-10-29T17:28:25.595Z,11.45
2022-10-29T17:30:52.482Z,18.48
2022-10-29T17:33:19.664Z,15.25
2022-10-29T17:35:46.522Z,15.93
2022-10-29T17:38:13.228Z,11.55
2022-10-29T17:40:40.092Z,9.95
2022-10-29T17:43:06.854Z,15.52
2022-10-29T17:45:33.537Z,15.48
2022-10-29T17:48:00.534Z,18.52
2022-10-29T17:50:27.693Z,14.73
2022-10-29T17:52:55.135Z,12.02
2022-10-29T17:55:21.831Z,14.35
2022-10-29T17:57:48.557Z,11.57
2022-10-29T18:00:15.625Z,10.93
2022-10-29T18:02:42.325Z,15.38
2022-10-29T18:05:09.447Z,14.20
2022-10-29T18:07:36.085Z,16.90
2022-10-29T18:10:03.306Z,13.18
2022-10-29T18:12:29.952Z,15.90
2022-10-29T18:14:56.619Z,19.02
2022-10-29T18:17:23.357Z,16.55
2022-10-29T18:19:50.005Z,12.65
2022-10-29T18:22:16.657Z,14.57
2022-10-29T18:24:43.537Z,13.40
2022-10-29T18:27:10.189Z,15.18
2022-10-29T18:29:36.821Z,14.05
2022-10-29T18:32:03.641Z,13.88
2022-10-29T18:34:31.594Z,12.27
2022-10-29T18:36:58.381Z,15.48
2022-10-29T18:39:25.122Z,16.85
2022-10-29T18:41:51.773Z,14.27
2022-10-29T18:44:18.533Z,11.75
2022-10-29T18:46:45.172Z,16.77
2022-10-29T18:49:12.987Z,21.42
2022-10-29T18:51:40.138Z,13.32
2022-10-29T18:54:06.873Z,15.85
2022-10-29T18:56:33.529Z,16.15
2022-10-29T18:59:00.739Z,19.17
2022-10-29T19:01:31.479Z,14.68
2022-10-29T19:04:04.385Z,18.52
2022-10-29T19:06:33.486Z,15.80
2022-10-29T19:09:02.173Z,17.83
2022-10-29T19:11:29.447Z,15.32
2022-10-29T19:14:01.446Z,17.80
2022-10-29T19:16:29.239Z,17.10
2022-10-29T19:18:57.803Z,13.68
2022-10-29T19:21:25.095Z,13.43
2022-10-29T19:23:59.262Z,12.98
2022-10-29T19:26:28.705Z,15.00
2022-10-29T19:28:55.455Z,13.70
2022-10-29T19:31:26.180Z,16.02
2022-10-29T19:33:55.162Z,13.93
2022-10-29T19:36:22.874Z,11.90
2022-10-29T19:38:49.565Z,13.98
2022-10-29T19:41:17.240Z,10.60
2022-10-29T19:43:44.675Z,15.05
2022-10-29T19:46:16.755Z,14.02
2022-10-29T19:48:43.654Z,15.40
2022-10-29T19:51:10.821Z,9.88
2022-10-29T19:53:39.025Z,11.93
2022-10-29T19:56:07.508Z,14.38
2022-10-29T19:58:34.235Z,15.73
2022-10-29T20:01:10.559Z,11.52
2022-10-29T20:03:37.389Z,14.55
2022-10-29T20:06:04.224Z,13.10
2022-10-29T20:08:30.873Z,18.42
2022-10-29T20:10:59.462Z,26.50
2022-10-29T20:13:27.025Z,20.67
2022-10-29T20:15:54.165Z,24.75
2022-10-29T20:18:21.134Z,22.15
2022-10-29T20:20:56.785Z,25.65
2022-10-29T20:23:25.716Z,17.15
2022-10-29T20:25:52.589Z,17.27
2022-10-29T20:28:19.329Z,17.17
2022-10-29T20:30:46.005Z,14.20
2022-10-29T20:33:12.953Z,14.38
2022-10-29T20:35:39.692Z,19.10
2022-10-29T20:38:06.564Z,16.17
2022-10-29T20:40:33.324Z,14.85
2022-10-29T20:43:00.009Z,13.63
2022-10-29T20:45:26.680Z,15.13
2022-10-29T20:47:53.313Z,13.35
2022-10-29T20:50:19.986Z,14.25
2022-10-29T20:52:48.785Z,17.27
2022-10-29T20:55:16.294Z,14.30
2022-10-29T20:57:42.943Z,16.23
2022-10-29T21:00:10.344Z,17.73
2022-10-29T21:02:37.427Z,21.20
2022-10-29T21:05:04.636Z,17.23
2022-10-29T21:07:31.362Z,16.13
2022-10-29T21:09:58.008Z,15.35
2022-10-29T21:12:24.646Z,16.92
2022-10-29T21:14:51.279Z,16.98
2022-10-29T21:17:17.931Z,23.75
2022-10-29T21:19:44.799Z,21.35
2022-10-29T21:22:14.735Z,18.20
2022-10-29T21:24:44.632Z,15.02
2022-10-29T21:27:12.599Z,15.30
2022-10-29T21:29:39.322Z,16.70
2022-10-29T21:32:06.244Z,16.27
2022-10-29T21:34:33.185Z,18.00
2022-10-29T21:36:59.849Z,16.50
2022-10-29T21:39:27.551Z,17.92
2022-10-29T21:41:54.448Z,19.90
2022-10-29T21:44:21.181Z,17.90
2022-10-29T21:46:47.821Z,18.05
2022-10-29T21:49:14.629Z,20.83
2022-10-29T21:51:41.414Z,16.95
2022-10-29T21:54:08.159Z,19.20
2022-10-29T21:56:34.805Z,17.30
2022-10-29T21:59:01.553Z,15.43
2022-10-29T22:01:28.236Z,12.80
2022-10-29T22:03:54.956Z,17.45
2022-10-29T22:06:23.155Z,16.02
2022-10-29T22:08:58.103Z,13.50
2022-10-29T22:11:26.629Z,18.40
2022-10-29T22:13:54.402Z,18.33
2022-10-29T22:16:22.360Z,16.98
2022-10-29T22:18:49.823Z,13.65
2022-10-29T22:21:19.669Z,11.38
2022-10-29T22:23:52.480Z,14.00
2022-10-29T22:26:22.269Z,15.82
2022-10-29T22:28:49.878Z,21.42
2022-10-29T22:31:18.875Z,15.18
2022-10-29T22:33:45.810Z,18.20
2022-10-29T22:36:18.033Z,15.13
2022-10-29T22:38:44.830Z,16.38
2022-10-29T22:41:14.159Z,16.17
2022-10-29T22:43:41.026Z,15.05
2022-10-29T22:46:09.302Z,14.07
2022-10-29T22:48:36.612Z,14.45
2022-10-29T22:51:07.301Z,16.65
2022-10-29T22:53:34.314Z,20.75
2022-10-29T22:56:02.078Z,16.48
2022-10-29T22:58:28.988Z,13.73
2022-10-29T23:01:09.001Z,15.90
2022-10-29T23:03:37.659Z,14.68
2022-10-29T23:06:06.307Z,13.90
2022-10-29T23:08:33.589Z,13.77
2022-10-29T23:11:08.255Z,15.35
2022-10-29T23:13:34.982Z,18.25
2022-10-29T23:16:01.713Z,24.05
2022-10-29T23:18:28.360Z,14.80
2022-10-29T23:21:02.250Z,14.27
2022-10-29T23:23:29.725Z,13.00
2022-10-29T23:26:00.898Z,20.95
2022-10-29T23:28:28.785Z,16.63
2022-10-29T23:30:56.858Z,19.40
2022-10-29T23:33:23.626Z,17.98
2022-10-29T23:35:50.561Z,14.13
2022-10-29T23:38:17.774Z,12.50
2022-10-29T23:40:45.693Z,22.30
2022-10-29T23:43:12.676Z,14.05
2022-10-29T23:45:40.769Z,21.73
2022-10-29T23:48:10.870Z,12.25
2022-10-29T23:50:38.526Z,13.38
2022-10-29T23:53:06.862Z,16.77
2022-10-29T23:55:34.622Z,13.73
2022-10-29T23:58:02.243Z,12.18
